createdAt,value
2022-10-09T00:00:26.142Z,101689.34
2022-10-09T00:02:54.205Z,101687.19
2022-10-09T00:05:23.775Z,101682.59
2022-10-09T00:07:52.889Z,101688.31
2022-10-09T00:10:20.924Z,101688.34
2022-10-09T00:12:49.559Z,101691.75
2022-10-09T00:15:17.570Z,101690.53
2022-10-09T00:17:45.602Z,101696.00
2022-10-09T00:20:13.592Z,101692.19
2022-10-09T00:22:41.175Z,101695.69
2022-10-09T00:25:11.194Z,101698.44
2022-10-09T00:27:39.785Z,101705.19
2022-10-09T00:30:09.404Z,101707.69
2022-10-09T00:32:37.363Z,101700.53
2022-10-09T00:35:05.671Z,101700.78
2022-10-09T00:37:33.493Z,101699.28
2022-10-09T00:40:01.966Z,101708.59
2022-10-09T00:42:31.162Z,101720.75
2022-10-09T00:45:01.881Z,101705.84
2022-10-09T00:47:33.204Z,101713.81
2022-10-09T00:50:06.539Z,101720.34
2022-10-09T00:52:34.685Z,101723.41
2022-10-09T00:55:03.659Z,101719.47
2022-10-09T00:57:34.696Z,101724.06
2022-10-09T01:00:07.026Z,101720.78
2022-10-09T01:02:34.684Z,101720.53
2022-10-09T01:05:02.390Z,101720.84
2022-10-09T01:07:36.440Z,101725.03
2022-10-09T01:10:13.877Z,101730.44
2022-10-09T01:12:48.810Z,101727.00
2022-10-09T01:15:19.355Z,101732.88
2022-10-09T01:17:54.791Z,101730.16
2022-10-09T01:20:46.195Z,101719.16
2022-10-09T01:23:38.621Z,101727.88
2022-10-09T01:26:35.464Z,101725.31
2022-10-09T01:29:07.881Z,101724.25
2022-10-09T01:31:40.239Z,101722.66
2022-10-09T01:34:08.799Z,101721.81
2022-10-09T01:36:39.684Z,101722.19
2022-10-09T01:39:10.056Z,101714.84
2022-10-09T01:41:39.191Z,101704.25
2022-10-09T01:44:18.503Z,101712.03
2022-10-09T01:46:46.706Z,101709.81
2022-10-09T01:49:21.836Z,101713.25
2022-10-09T01:51:53.765Z,101713.78
2022-10-09T01:54:31.015Z,101708.69
2022-10-09T01:57:01.231Z,101706.03
2022-10-09T01:59:31.305Z,101703.59
2022-10-09T02:02:00.666Z,101702.53
2022-10-09T02:04:28.950Z,101710.59
2022-10-09T02:06:57.410Z,101700.41
2022-10-09T02:09:25.699Z,101699.88
2022-10-09T02:11:55.905Z,101700.72
2022-10-09T02:14:24.153Z,101699.03
2022-10-09T02:16:58.425Z,101688.69
2022-10-09T02:19:31.998Z,101687.19
2022-10-09T02:22:02.462Z,101691.34
2022-10-09T02:24:30.621Z,101676.63
2022-10-09T02:26:59.538Z,101690.56
2022-10-09T02:29:27.610Z,101682.44
2022-10-09T02:31:56.880Z,101681.03
2022-10-09T02:34:25.845Z,101688.31
2022-10-09T02:36:55.308Z,101684.94
2022-10-09T02:39:23.025Z,101684.41
2022-10-09T02:41:50.651Z,101672.50
2022-10-09T02:44:18.305Z,101676.56
2022-10-09T02:46:46.135Z,101670.84
2022-10-09T02:49:16.061Z,101674.94
2022-10-09T02:51:44.884Z,101674.59
2022-10-09T02:54:13.009Z,101673.34
2022-10-09T02:56:42.005Z,101676.13
2022-10-09T02:59:09.899Z,101680.56
2022-10-09T03:01:37.592Z,101680.25
2022-10-09T03:04:05.473Z,101672.94
2022-10-09T03:06:35.726Z,101672.59
2022-10-09T03:09:04.694Z,101682.56
2022-10-09T03:11:32.332Z,101685.88
2022-10-09T03:14:00.528Z,101677.28
2022-10-09T03:16:28.786Z,101689.88
2022-10-09T03:18:56.549Z,101680.44
2022-10-09T03:21:26.756Z,101680.09
2022-10-09T03:23:56.899Z,101676.84
2022-10-09T03:26:26.626Z,101685.44
2022-10-09T03:28:55.478Z,101684.88
2022-10-09T03:34:13.993Z,101682.63
2022-10-09T03:36:42.223Z,101683.34
2022-10-09T03:39:11.726Z,101683.69
2022-10-09T03:41:41.296Z,101683.75
2022-10-09T03:44:09.401Z,101673.88
2022-10-09T03:46:37.800Z,101682.56
2022-10-09T03:49:05.981Z,101688.53
2022-10-09T03:51:33.840Z,101678.97
2022-10-09T03:54:02.406Z,101681.88
2022-10-09T03:56:32.096Z,101685.25
2022-10-09T03:59:01.062Z,101683.25
2022-10-09T04:01:28.957Z,101689.09
2022-10-09T04:03:57.735Z,101681.19
2022-10-09T04:06:27.341Z,101679.41
2022-10-09T04:08:55.004Z,101683.81
2022-10-09T04:11:23.682Z,101686.31
2022-10-09T04:13:52.737Z,101683.00
2022-10-09T04:16:21.319Z,101685.78
2022-10-09T04:18:48.930Z,101680.81
2022-10-09T04:21:16.581Z,101691.69
2022-10-09T04:23:44.277Z,101690.84
2022-10-09T04:26:12.738Z,101682.22
2022-10-09T04:28:41.081Z,101691.97
2022-10-09T04:31:11.209Z,101686.41
2022-10-09T04:33:38.917Z,101681.25
2022-10-09T04:36:08.367Z,101681.25
2022-10-09T04:38:36.430Z,101682.75
2022-10-09T04:41:05.906Z,101685.69
2022-10-09T04:43:34.612Z,101682.50
2022-10-09T04:46:05.232Z,101683.47
2022-10-09T04:48:38.799Z,101690.44
2022-10-09T04:51:08.102Z,101693.53
2022-10-09T04:53:36.856Z,101683.91
2022-10-09T04:56:06.183Z,101683.59
2022-10-09T04:58:35.439Z,101687.38
2022-10-09T05:01:07.599Z,101687.50
2022-10-09T05:03:38.724Z,101686.38
2022-10-09T05:06:08.744Z,101681.09
2022-10-09T05:08:37.756Z,101677.34
2022-10-09T05:11:09.300Z,101686.66
2022-10-09T05:13:39.071Z,101687.25
2022-10-09T05:16:11.127Z,101684.00
2022-10-09T05:18:46.290Z,101681.09
2022-10-09T05:21:14.559Z,101679.56
2022-10-09T05:23:42.377Z,101674.28
2022-10-09T05:26:13.702Z,101678.72
2022-10-09T05:28:41.747Z,101683.84
2022-10-09T05:31:10.159Z,101683.84
2022-10-09T05:33:37.850Z,101677.19
2022-10-09T05:36:07.903Z,101679.69
2022-10-09T05:38:35.724Z,101676.50
2022-10-09T05:41:05.833Z,101681.38
2022-10-09T05:43:36.098Z,101677.47
2022-10-09T05:46:08.685Z,101683.72
2022-10-09T05:48:38.697Z,101679.97
2022-10-09T05:51:13.801Z,101682.75
2022-10-09T05:53:43.381Z,101689.72
2022-10-09T05:56:16.591Z,101699.63
2022-10-09T05:58:45.634Z,101700.00
2022-10-09T06:01:15.193Z,101698.50
2022-10-09T06:03:43.023Z,101702.97
2022-10-09T06:06:12.180Z,101697.41
2022-10-09T06:08:40.197Z,101704.50
2022-10-09T06:11:13.016Z,101705.88
2022-10-09T06:13:41.887Z,101698.38
2022-10-09T06:16:11.488Z,101697.69
2022-10-09T06:18:40.818Z,101698.66
2022-10-09T06:21:09.208Z,101701.03
2022-10-09T06:23:38.982Z,101703.97
2022-10-09T06:26:09.436Z,101700.06
2022-10-09T06:28:38.516Z,101700.59
2022-10-09T06:31:07.655Z,101695.59
2022-10-09T06:33:37.018Z,101697.09
2022-10-09T06:36:10.187Z,101705.00
2022-10-09T06:38:40.901Z,101699.28
2022-10-09T06:41:10.144Z,101695.13
2022-10-09T06:43:38.119Z,101701.09
2022-10-09T06:46:09.359Z,101699.97
2022-10-09T06:48:38.575Z,101703.28
2022-10-09T06:51:08.528Z,101703.56
2022-10-09T06:53:37.638Z,101714.94
2022-10-09T06:56:08.567Z,101710.72
2022-10-09T06:58:37.438Z,101700.09
2022-10-09T07:01:10.059Z,101703.38
2022-10-09T07:03:39.357Z,101702.88
2022-10-09T07:06:08.674Z,101706.19
2022-10-09T07:08:37.561Z,101705.63
2022-10-09T07:11:15.563Z,101705.00
2022-10-09T07:13:44.755Z,101698.28
2022-10-09T07:16:13.032Z,101706.28
2022-10-09T07:18:46.200Z,101700.31
2022-10-09T07:21:13.901Z,101702.53
2022-10-09T07:23:41.718Z,101703.28
2022-10-09T07:26:14.473Z,101710.50
2022-10-09T07:28:43.325Z,101705.06
2022-10-09T07:31:11.930Z,101709.91
2022-10-09T07:33:40.177Z,101715.91
2022-10-09T07:36:08.248Z,101712.38
2022-10-09T07:38:35.784Z,101713.75
2022-10-09T07:41:05.132Z,101716.78
2022-10-09T07:43:35.964Z,101707.41
2022-10-09T07:46:05.396Z,101706.97
2022-10-09T07:48:35.071Z,101710.94
2022-10-09T07:51:08.943Z,101701.50
2022-10-09T07:53:37.576Z,101700.44
2022-10-09T07:56:05.845Z,101700.53
2022-10-09T07:58:35.360Z,101695.41
2022-10-09T08:01:11.769Z,101700.34
2022-10-09T08:03:42.399Z,101696.94
2022-10-09T08:06:10.666Z,101700.72
2022-10-09T08:08:38.495Z,101694.66
2022-10-09T08:11:10.348Z,101686.63
2022-10-09T08:13:40.169Z,101675.31
2022-10-09T08:16:08.260Z,101664.03
2022-10-09T08:18:36.760Z,101662.38
2022-10-09T08:21:06.723Z,101666.22
2022-10-09T08:24:38.657Z,101646.53
2022-10-09T08:27:07.520Z,101639.53
2022-10-09T08:29:40.061Z,101627.22
2022-10-09T08:32:09.110Z,101620.84
2022-10-09T08:34:36.767Z,101619.16
2022-10-09T08:37:04.615Z,101607.13
2022-10-09T08:39:32.496Z,101612.13
2022-10-09T08:42:03.517Z,101609.88
2022-10-09T08:44:38.161Z,101617.31
2022-10-09T08:47:09.681Z,101615.28
2022-10-09T08:49:42.638Z,101608.22
2022-10-09T08:52:26.437Z,101609.69
2022-10-09T08:54:57.212Z,101602.19
2022-10-09T08:57:30.466Z,101594.38
2022-10-09T08:59:59.469Z,101601.13
2022-10-09T09:02:37.365Z,101602.31
2022-10-09T09:05:16.635Z,101596.59
2022-10-09T09:07:51.292Z,101600.31
2022-10-09T09:10:25.800Z,101615.88
2022-10-09T09:12:56.810Z,101620.97
2022-10-09T09:15:36.932Z,101615.31
2022-10-09T09:21:49.759Z,101607.22
2022-10-09T09:24:20.388Z,101603.38
2022-10-09T09:26:50.447Z,101596.84
2022-10-09T09:29:22.973Z,101603.50
2022-10-09T09:31:58.277Z,101594.34
2022-10-09T09:34:37.900Z,101594.28
2022-10-09T09:37:05.844Z,101596.28
2022-10-09T09:40:30.888Z,101581.34
2022-10-09T09:42:27.755Z,101580.88
2022-10-09T09:44:58.986Z,101584.41
2022-10-09T09:47:34.764Z,101576.31
2022-10-09T09:50:04.518Z,101572.09
2022-10-09T09:52:36.093Z,101564.16
2022-10-09T09:55:04.997Z,101562.41
2022-10-09T09:57:36.587Z,101551.78
2022-10-09T10:00:20.553Z,101550.25
2022-10-09T10:02:50.765Z,101548.56
2022-10-09T10:05:24.368Z,101546.59
2022-10-09T10:07:56.522Z,101539.25
2022-10-09T10:10:27.100Z,101535.97
2022-10-09T10:12:56.856Z,101524.91
2022-10-09T10:15:26.776Z,101531.59
2022-10-09T10:18:03.901Z,101526.03
2022-10-09T10:20:32.984Z,101517.97
2022-10-09T10:23:02.006Z,101527.88
2022-10-09T10:25:37.778Z,101537.06
2022-10-09T10:28:09.587Z,101536.13
2022-10-09T10:30:42.430Z,101531.97
2022-10-09T10:33:19.765Z,101521.03
2022-10-09T10:35:51.341Z,101529.94
2022-10-09T10:38:22.493Z,101525.41
2022-10-09T10:40:54.002Z,101508.47
2022-10-09T10:43:30.887Z,101513.47
2022-10-09T11:01:22.469Z,101474.28
2022-10-09T11:04:12.638Z,101477.81
2022-10-09T11:06:46.140Z,101478.16
2022-10-09T11:09:17.670Z,101473.97
2022-10-09T11:11:50.146Z,101478.16
2022-10-09T11:14:29.565Z,101456.91
2022-10-09T11:17:02.305Z,101460.81
2022-10-09T11:19:50.526Z,101464.09
2022-10-09T11:22:29.557Z,101450.84
2022-10-09T11:25:05.044Z,101447.66
2022-10-09T11:27:39.276Z,101459.78
2022-10-09T11:30:10.707Z,101457.16
2022-10-09T11:35:16.200Z,101436.19
2022-10-09T11:37:44.916Z,101420.72
2022-10-09T11:40:16.004Z,101427.00
2022-10-09T11:42:43.951Z,101416.16
2022-10-09T11:45:21.991Z,101411.28
2022-10-09T11:47:57.564Z,101405.97
2022-10-09T11:50:41.054Z,101417.19
2022-10-09T11:53:12.015Z,101392.66
2022-10-09T11:55:40.762Z,101417.50
2022-10-09T11:58:14.850Z,101399.97
2022-10-09T12:00:43.237Z,101379.03
2022-10-09T12:03:25.104Z,101393.66
2022-10-09T12:06:08.041Z,101399.50
2022-10-09T12:08:35.752Z,101361.28
2022-10-09T12:11:11.796Z,101368.16
2022-10-09T12:13:46.896Z,101376.53
2022-10-09T12:16:36.689Z,101380.63
2022-10-09T12:19:07.383Z,101368.31
2022-10-09T12:21:39.524Z,101366.00
2022-10-09T12:24:08.172Z,101350.91
2022-10-09T12:26:36.518Z,101365.97
2022-10-09T12:29:05.213Z,101354.09
2022-10-09T12:31:34.665Z,101354.78
2022-10-09T12:34:04.942Z,101323.50
2022-10-09T12:40:18.759Z,101344.09
2022-10-09T12:42:47.338Z,101313.00
2022-10-09T12:45:18.067Z,101335.31
2022-10-09T12:47:45.859Z,101322.31
2022-10-09T12:50:27.564Z,101312.00
2022-10-09T12:52:58.415Z,101322.34
2022-10-09T12:55:30.480Z,101305.97
2022-10-09T12:58:03.254Z,101294.88
2022-10-09T13:00:33.187Z,101294.38
2022-10-09T13:03:01.595Z,101285.66
2022-10-09T13:05:37.547Z,101280.44
2022-10-09T13:08:05.868Z,101273.50
2022-10-09T13:10:35.022Z,101279.19
2022-10-09T13:13:06.502Z,101278.28
2022-10-09T13:15:35.750Z,101264.59
2022-10-09T13:18:14.700Z,101258.78
2022-10-09T13:20:42.359Z,101252.16
2022-10-09T13:23:28.632Z,101272.81
2022-10-09T13:26:01.177Z,101256.34
2022-10-09T13:28:31.679Z,101247.44
2022-10-09T13:31:07.198Z,101249.56
2022-10-09T13:33:35.326Z,101235.28
2022-10-09T13:36:03.047Z,101241.59
2022-10-09T13:38:34.826Z,101236.97
2022-10-09T13:41:04.220Z,101227.91
2022-10-09T13:43:32.549Z,101212.00
2022-10-09T13:46:00.425Z,101218.06
2022-10-09T13:48:29.484Z,101209.69
2022-10-09T13:50:59.055Z,101202.88
2022-10-09T13:53:27.393Z,101226.06
2022-10-09T13:56:00.052Z,101212.69
2022-10-09T13:58:31.161Z,101194.66
2022-10-09T14:00:59.191Z,101194.50
2022-10-09T14:03:26.991Z,101205.84
2022-10-09T14:05:58.868Z,101199.44
2022-10-09T14:08:26.590Z,101181.06
2022-10-09T14:10:54.713Z,101179.69
2022-10-09T14:13:22.400Z,101187.78
2022-10-09T14:15:52.992Z,101190.03
2022-10-09T14:18:20.969Z,101167.94
2022-10-09T14:20:49.419Z,101168.44
2022-10-09T14:23:17.122Z,101153.84
2022-10-09T14:25:44.704Z,101160.50
2022-10-09T14:28:12.738Z,101169.25
2022-10-09T14:30:41.285Z,101167.94
2022-10-09T14:33:10.324Z,101145.63
2022-10-09T14:35:38.449Z,101160.84
2022-10-09T14:38:06.156Z,101137.88
2022-10-09T14:40:33.781Z,101129.38
2022-10-09T14:43:01.664Z,101138.31
2022-10-09T14:45:29.871Z,101130.41
2022-10-09T14:47:57.952Z,101134.16
2022-10-09T14:50:27.167Z,101120.88
2022-10-09T14:52:55.084Z,101116.84
2022-10-09T14:55:22.738Z,101128.75
2022-10-09T14:57:50.353Z,101124.13
2022-10-09T15:00:18.152Z,101111.59
2022-10-09T15:02:45.891Z,101123.75
2022-10-09T15:05:13.515Z,101119.06
2022-10-09T15:07:42.605Z,101104.34
2022-10-09T15:10:10.865Z,101106.81
2022-10-09T15:12:38.557Z,101108.97
2022-10-09T15:15:06.660Z,101100.78
2022-10-09T15:17:34.295Z,101087.38
2022-10-09T15:20:01.920Z,101096.34
2022-10-09T15:22:29.582Z,101094.84
2022-10-09T15:24:58.676Z,101096.09
2022-10-09T15:27:27.480Z,101091.97
2022-10-09T15:29:55.082Z,101062.09
2022-10-09T15:32:22.720Z,101062.06
2022-10-09T15:34:50.470Z,101060.94
2022-10-09T15:38:22.504Z,101058.22
2022-10-09T15:40:53.452Z,101066.22
2022-10-09T15:43:23.281Z,101058.03
2022-10-09T15:45:51.525Z,101064.00
2022-10-09T15:48:21.052Z,101050.56
2022-10-09T15:50:51.670Z,101039.44
2022-10-09T15:53:21.056Z,101051.06
2022-10-09T15:55:52.474Z,101021.38
2022-10-09T15:58:20.444Z,101033.63
2022-10-09T16:00:50.064Z,101033.53
2022-10-09T16:03:19.008Z,101018.50
2022-10-09T16:05:48.799Z,101009.47
2022-10-09T16:08:17.514Z,101025.38
2022-10-09T16:10:48.846Z,101018.19
2022-10-09T16:13:19.208Z,101009.91
2022-10-09T16:15:51.655Z,101013.09
2022-10-09T16:18:21.104Z,101006.47
2022-10-09T16:20:49.246Z,101004.94
2022-10-09T16:23:18.576Z,101001.94
2022-10-09T16:25:57.360Z,100998.47
2022-10-09T16:28:26.980Z,100999.50
2022-10-09T16:30:54.863Z,100995.13
2022-10-09T16:33:26.696Z,100982.97
2022-10-09T16:35:54.627Z,100990.78
2022-10-09T16:38:22.631Z,100990.97
2022-10-09T16:41:01.861Z,100995.19
2022-10-09T16:43:34.746Z,100983.59
2022-10-09T16:46:13.919Z,100990.28
2022-10-09T16:48:41.621Z,100993.78
2022-10-09T16:51:10.948Z,100993.78
2022-10-09T16:53:38.984Z,100981.22
2022-10-09T16:56:12.799Z,100995.84
2022-10-09T16:58:43.567Z,100988.63
2022-10-09T17:01:12.399Z,100985.94
2022-10-09T17:03:41.443Z,100980.75
2022-10-09T17:06:10.615Z,100985.16
2022-10-09T17:08:38.488Z,100984.31
2022-10-09T17:11:08.252Z,100983.03
2022-10-09T17:13:35.855Z,100991.09
2022-10-09T17:16:07.531Z,100981.72
2022-10-09T17:18:36.053Z,100979.13
2022-10-09T17:21:04.438Z,100972.53
2022-10-09T17:23:36.423Z,100970.75
2022-10-09T17:26:06.637Z,100977.00
2022-10-09T17:28:35.374Z,100972.31
2022-10-09T17:31:10.556Z,100968.75
2022-10-09T17:33:42.630Z,100970.13
2022-10-09T17:36:10.345Z,100969.16
2022-10-09T17:38:38.525Z,100962.09
2022-10-09T17:41:08.160Z,100967.88
2022-10-09T17:43:39.848Z,100961.84
2022-10-09T17:46:10.334Z,100969.25
2022-10-09T17:48:43.981Z,100962.31
2022-10-09T17:51:16.102Z,100960.53
2022-10-09T17:53:44.097Z,100947.47
2022-10-09T17:56:13.241Z,100943.34
2022-10-09T17:58:41.278Z,100943.47
2022-10-09T18:01:12.113Z,100948.59
2022-10-09T18:03:39.985Z,100944.28
2022-10-09T18:06:09.454Z,100949.53
2022-10-09T18:08:38.198Z,100942.75
2022-10-09T18:11:10.673Z,100950.97
2022-10-09T18:13:41.942Z,100934.56
2022-10-09T18:16:13.382Z,100934.19
2022-10-09T18:18:41.796Z,100937.63
2022-10-09T18:21:14.770Z,100924.81
2022-10-09T18:23:42.649Z,100929.34
2022-10-09T18:26:11.480Z,100930.84
2022-10-09T18:28:41.771Z,100926.94
2022-10-09T18:31:15.518Z,100930.34
2022-10-09T18:33:43.683Z,100925.34
2022-10-09T18:36:19.258Z,100924.41
2022-10-09T18:38:48.648Z,100922.41
2022-10-09T18:41:16.675Z,100922.75
2022-10-09T18:43:45.474Z,100924.03
2022-10-09T18:46:19.391Z,100917.94
2022-10-09T18:48:47.635Z,100927.94
2022-10-09T18:51:17.571Z,100921.09
2022-10-09T18:53:50.015Z,100921.75
2022-10-09T18:56:19.208Z,100912.34
2022-10-09T18:58:48.311Z,100909.00
2022-10-09T19:01:21.230Z,100921.22
2022-10-09T19:03:50.312Z,100915.28
2022-10-09T19:06:19.490Z,100911.38
2022-10-09T19:08:48.994Z,100915.53
2022-10-09T19:11:17.711Z,100913.06
2022-10-09T19:13:46.229Z,100909.28
2022-10-09T19:16:14.004Z,100908.88
2022-10-09T19:18:43.060Z,100905.63
2022-10-09T19:21:14.224Z,100915.16
2022-10-09T19:23:41.940Z,100908.41
2022-10-09T19:26:13.002Z,100909.66
2022-10-09T19:28:41.435Z,100908.25
2022-10-09T19:31:11.138Z,100902.75
2022-10-09T19:33:44.671Z,100903.78
2022-10-09T19:36:13.309Z,100901.22
2022-10-09T19:38:42.152Z,100895.78
2022-10-09T19:41:12.667Z,100897.47
2022-10-09T19:43:41.059Z,100904.47
2022-10-09T19:46:11.042Z,100899.06
2022-10-09T19:48:40.703Z,100901.09
2022-10-09T19:51:18.207Z,100901.78
2022-10-09T19:53:46.430Z,100898.19
2022-10-09T19:56:16.064Z,100886.25
2022-10-09T19:58:49.347Z,100890.81
2022-10-09T20:02:18.266Z,100887.97
2022-10-09T20:04:52.426Z,100885.88
2022-10-09T20:07:22.064Z,100884.69
2022-10-09T20:09:49.658Z,100883.38
2022-10-09T20:12:17.787Z,100878.28
2022-10-09T20:14:45.879Z,100878.38
2022-10-09T20:17:14.656Z,100883.53
2022-10-09T20:19:45.751Z,100876.69
2022-10-09T20:22:14.111Z,100869.41
2022-10-09T20:24:43.240Z,100869.09
2022-10-09T20:27:11.262Z,100870.03
2022-10-09T20:29:39.131Z,100868.81
2022-10-09T20:32:07.750Z,100868.69
2022-10-09T20:34:35.412Z,100874.53
2022-10-09T20:37:03.123Z,100864.84
2022-10-09T20:39:31.263Z,100862.84
2022-10-09T20:42:02.289Z,100865.75
2022-10-09T20:44:30.356Z,100860.78
2022-10-09T20:46:58.214Z,100861.88
2022-10-09T20:49:26.065Z,100864.44
2022-10-09T20:51:53.866Z,100856.47
2022-10-09T20:54:22.814Z,100857.53
2022-10-09T20:56:50.882Z,100850.56
2022-10-09T20:59:20.089Z,100844.13
2022-10-09T21:01:48.288Z,100843.50
2022-10-09T21:04:17.559Z,100850.56
2022-10-09T21:06:45.374Z,100843.72
2022-10-09T21:09:13.602Z,100847.72
2022-10-09T21:11:41.783Z,100844.06
2022-10-09T21:14:11.281Z,100840.63
2022-10-09T21:16:41.299Z,100831.84
2022-10-09T21:19:09.232Z,100834.69
2022-10-09T21:21:37.442Z,100835.94
2022-10-09T21:24:07.715Z,100831.75
2022-10-09T21:26:36.401Z,100831.53
2022-10-09T21:29:05.274Z,100826.53
2022-10-09T21:31:33.879Z,100832.56
2022-10-09T21:34:03.684Z,100823.94
2022-10-09T21:36:36.323Z,100823.38
2022-10-09T21:39:05.447Z,100826.22
2022-10-09T21:41:34.010Z,100821.84
2022-10-09T21:44:02.759Z,100809.34
2022-10-09T21:46:31.397Z,100817.94
2022-10-09T21:49:03.248Z,100818.66
2022-10-09T21:51:36.031Z,100814.91
2022-10-09T21:54:03.796Z,100819.31
2022-10-09T21:56:32.602Z,100809.03
2022-10-09T21:59:00.710Z,100802.88
2022-10-09T22:01:29.140Z,100810.66
2022-10-09T22:05:00.870Z,100806.19
2022-10-09T22:07:30.644Z,100799.22
2022-10-09T22:09:58.457Z,100792.72
2022-10-09T22:12:26.063Z,100791.03
2022-10-09T22:14:54.580Z,100790.31
2022-10-09T22:17:22.212Z,100788.72
2022-10-09T22:19:49.871Z,100784.16
2022-10-09T22:22:17.605Z,100780.53
2022-10-09T22:24:47.413Z,100774.94
2022-10-09T22:27:15.283Z,100775.97
2022-10-09T22:29:44.019Z,100772.75
2022-10-09T22:32:12.484Z,100773.38
2022-10-09T22:34:40.485Z,100764.59
2022-10-09T22:37:08.094Z,100765.19
2022-10-09T22:39:37.330Z,100759.88
2022-10-09T22:42:06.748Z,100761.44
2022-10-09T22:44:34.581Z,100754.47
2022-10-09T22:47:02.184Z,100755.53
2022-10-09T22:49:29.871Z,100753.50
2022-10-09T22:51:58.284Z,100751.25
2022-10-09T22:54:26.342Z,100748.59
2022-10-09T22:56:54.036Z,100745.13
2022-10-09T22:59:23.131Z,100746.91
2022-10-09T23:01:53.382Z,100744.44
2022-10-09T23:04:22.445Z,100737.03
2022-10-09T23:06:51.670Z,100733.09
2022-10-09T23:09:21.540Z,100729.56
2022-10-09T23:11:49.419Z,100732.38
2022-10-09T23:14:18.100Z,100726.72
2022-10-09T23:16:49.489Z,100724.59
2022-10-09T23:19:17.899Z,100714.31
2022-10-09T23:21:46.602Z,100719.53
2022-10-09T23:24:18.120Z,100719.16
2022-10-09T23:26:46.930Z,100706.16
2022-10-09T23:29:16.634Z,100714.38
2022-10-09T23:31:45.272Z,100709.50
2022-10-09T23:34:14.301Z,100703.69
2022-10-09T23:36:42.989Z,100699.25
2022-10-09T23:39:10.948Z,100706.06
2022-10-09T23:41:39.303Z,100692.13
2022-10-09T23:44:07.241Z,100686.56
2022-10-09T23:46:37.542Z,100686.31
2022-10-09T23:49:06.232Z,100679.94
2022-10-09T23:51:38.069Z,100685.09
2022-10-09T23:54:07.124Z,100682.03
2022-10-09T23:56:36.380Z,100680.75
2022-10-09T23:59:06.495Z,100688.16
